Time;durP1;ratioP1;P1;durP2;ratioP2;P2;SDS_P1;SDS_P2;PMS_P1;PMS_P2;Temp;Humidity;BMP_temperature;BMP_pressure;BME280_temperature;BME280_humidity;BME280_pressure;Samples;Min_cycle;Max_cycle;Signal;HPM_P1;HPM_P2
2022/02/03 00:02:40;;;;;;;11.10;3.47;;;5.60;99.90;;;;;;4964664;28;20470;-77
2022/02/03 00:06:14;;;;;;;8.53;2.93;;;5.60;99.90;;;;;;4964969;28;20479;-78
2022/02/03 00:24:21;;;;;;;12.77;3.90;;;5.50;99.90;;;;;;4967345;28;20454;-77
2022/02/03 00:27:40;;;;;;;11.90;3.80;;;5.50;99.90;;;;;;4967809;28;20537;-77
2022/02/03 00:30:35;;;;;;;10.27;4.37;;;5.50;99.90;;;;;;4959830;28;20476;-78
2022/02/03 00:33:46;;;;;;;9.67;3.33;;;5.50;99.90;;;;;;4970881;28;21474;-77
2022/02/03 00:37:03;;;;;;;12.43;4.00;;;5.50;99.90;;;;;;4969707;28;20489;-78
2022/02/03 00:49:10;;;;;;;8.47;3.53;;;5.50;99.90;;;;;;4960207;28;20626;-77
2022/02/03 00:52:01;;;;;;;9.00;3.10;;;5.60;99.90;;;;;;4964516;28;20481;-78
2022/02/03 00:54:48;;;;;;;4.93;3.07;;;5.60;99.90;;;;;;4966173;28;20547;-78
2022/02/03 00:57:43;;;;;;;9.80;2.87;;;5.60;99.90;;;;;;4969969;28;20458;-78
2022/02/03 01:00:33;;;;;;;8.23;2.97;;;5.70;99.90;;;;;;4961030;28;20442;-77
2022/02/03 01:03:28;;;;;;;8.97;3.20;;;5.70;99.90;;;;;;4969776;28;20461;-77
2022/02/03 01:06:16;;;;;;;5.83;3.37;;;5.70;99.90;;;;;;4965783;28;20497;-77
2022/02/03 01:09:07;;;;;;;10.27;3.57;;;5.80;99.90;;;;;;4965560;28;20450;-77
2022/02/03 01:12:06;;;;;;;10.43;3.17;;;5.80;99.90;;;;;;4967378;28;20450;-77
2022/02/03 01:51:50;;;;;;;8.87;3.93;;;5.90;99.90;;;;;;4967925;28;20985;-77
2022/02/03 01:54:41;;;;;;;10.83;4.43;;;6.00;99.90;;;;;;4966932;28;20517;-77
2022/02/03 01:57:47;;;;;;;6.87;2.80;;;5.90;99.90;;;;;;4959035;28;20839;-77
2022/02/03 02:00:39;;;;;;;7.67;2.83;;;5.90;99.90;;;;;;4966894;28;20438;-77
2022/02/03 02:03:43;;;;;;;5.43;2.20;;;5.90;99.90;;;;;;4968118;28;22616;-75
2022/02/03 02:06:54;;;;;;;3.77;2.50;;;5.90;99.90;;;;;;4963377;28;20505;-78
2022/02/03 02:10:25;;;;;;;8.30;3.00;;;5.90;99.90;;;;;;4965573;28;20832;-77
2022/02/03 02:13:39;;;;;;;8.00;3.13;;;5.90;99.90;;;;;;4977117;28;20466;-77
2022/02/03 02:45:02;;;;;;;8.13;2.60;;;6.20;99.90;;;;;;4961128;28;20489;-77
2022/02/03 02:48:11;;;;;;;10.43;3.67;;;6.20;99.90;;;;;;4968392;28;20461;-77
2022/02/03 02:51:16;;;;;;;8.10;2.93;;;6.10;99.90;;;;;;4964601;28;20450;-77
2022/02/03 03:35:08;;;;;;;7.93;3.30;;;6.20;99.90;;;;;;4967144;28;20478;-77
2022/02/03 03:38:02;;;;;;;8.00;3.50;;;6.30;99.90;;;;;;4977841;28;20509;-77
2022/02/03 03:40:52;;;;;;;6.27;3.20;;;6.30;99.90;;;;;;4969783;28;22018;-78
2022/02/03 03:43:42;;;;;;;6.23;2.93;;;6.30;99.90;;;;;;4975402;28;23543;-77
2022/02/03 03:46:40;;;;;;;6.87;3.10;;;6.40;99.90;;;;;;4966667;28;20474;-78
2022/02/03 03:49:30;;;;;;;7.33;3.30;;;6.40;99.90;;;;;;4963754;28;20454;-77
2022/02/03 03:52:25;;;;;;;9.20;3.23;;;6.40;99.90;;;;;;4963945;28;20971;-77
2022/02/03 04:56:58;;;;;;;9.73;5.70;;;6.50;99.90;;;;;;4967526;28;20495;-77
2022/02/03 05:17:50;;;;;;;16.33;7.80;;;6.60;99.90;;;;;;4967755;28;20490;-77
2022/02/03 05:44:59;;;;;;;;;;;;;;;;;;;;;
2022/02/03 05:51:07;;;;;;;11.50;8.10;;;6.70;99.90;;;;;;4956796;28;20442;-77
2022/02/03 06:03:38;;;;;;;11.90;8.10;;;6.70;99.90;;;;;;4959788;28;20451;-77
2022/02/03 06:13:07;;;;;;;10.70;7.87;;;6.80;99.90;;;;;;4967319;28;20464;-78
2022/02/03 06:16:18;;;;;;;11.17;7.50;;;6.80;99.90;;;;;;4964810;28;20509;-77
2022/02/03 06:28:08;;;;;;;10.57;6.90;;;7.00;99.90;;;;;;4959886;28;20613;-77
2022/02/03 06:30:55;;;;;;;9.40;6.97;;;7.10;99.90;;;;;;4953289;28;20543;-76
2022/02/03 06:33:42;;;;;;;9.97;6.90;;;7.10;99.90;;;;;;4970353;28;20919;-77
2022/02/03 06:36:29;;;;;;;7.27;6.47;;;7.10;99.90;;;;;;4958586;28;20493;-78
2022/02/03 06:39:24;;;;;;;9.23;7.13;;;7.20;99.90;;;;;;4967327;28;20454;-77
2022/02/03 06:42:14;;;;;;;8.60;6.27;;;7.20;99.90;;;;;;4960263;28;20928;-77
2022/02/03 06:45:48;;;;;;;11.50;7.07;;;7.20;99.90;;;;;;4977963;28;20552;-79
2022/02/03 06:48:16;;;;;;;9.63;7.03;;;7.10;99.90;;;;;;4965585;28;20930;-78
2022/02/03 06:51:11;;;;;;;10.13;7.00;;;7.00;99.90;;;;;;4962759;28;20566;-78
2022/02/03 06:54:04;;;;;;;11.90;7.63;;;7.10;99.90;;;;;;4965961;28;20480;-78
2022/02/03 06:56:57;;;;;;;8.50;6.53;;;7.10;99.90;;;;;;4964984;28;20576;-78
2022/02/03 06:59:55;;;;;;;10.60;6.97;;;7.10;99.90;;;;;;4957031;28;20465;-79
2022/02/03 07:02:44;;;;;;;13.20;7.70;;;7.20;99.90;;;;;;4962742;28;20961;-78
2022/02/03 07:05:34;;;;;;;14.13;8.50;;;7.20;99.90;;;;;;4969691;28;20474;-79
2022/02/03 07:08:22;;;;;;;11.27;8.00;;;7.20;99.90;;;;;;4965925;28;20454;-79
2022/02/03 07:11:10;;;;;;;11.80;7.50;;;7.10;99.90;;;;;;4965822;28;20477;-78
2022/02/03 07:13:57;;;;;;;11.47;7.80;;;7.10;99.90;;;;;;4978593;28;20470;-78
2022/02/03 07:16:48;;;;;;;12.50;8.77;;;7.20;99.90;;;;;;4948283;28;20477;-78
2022/02/03 07:19:42;;;;;;;15.00;8.37;;;7.20;99.90;;;;;;4962152;28;20469;-78
2022/02/03 07:22:29;;;;;;;10.37;6.83;;;7.20;99.90;;;;;;4965677;28;20470;-79
2022/02/03 07:25:19;;;;;;;12.03;8.10;;;7.20;99.90;;;;;;4963710;28;20478;-79
2022/02/03 07:28:08;;;;;;;14.10;7.40;;;7.20;99.90;;;;;;4964592;28;20481;-78
2022/02/03 07:30:55;;;;;;;13.13;9.20;;;7.30;99.90;;;;;;4959377;28;20458;-78
2022/02/03 07:33:42;;;;;;;12.13;7.43;;;7.40;99.90;;;;;;4965872;28;20994;-79
2022/02/03 07:36:30;;;;;;;12.37;8.50;;;7.40;99.90;;;;;;4957088;28;20849;-78
2022/02/03 07:39:17;;;;;;;13.30;8.50;;;7.40;99.90;;;;;;4971528;28;20458;-78
2022/02/03 07:42:04;;;;;;;13.57;8.60;;;7.40;99.90;;;;;;4970706;28;20450;-79
2022/02/03 07:44:51;;;;;;;11.37;8.07;;;7.40;99.90;;;;;;4970977;28;20486;-79
2022/02/03 07:47:46;;;;;;;12.00;8.73;;;7.50;99.90;;;;;;4997155;28;20454;-79
2022/02/03 07:50:33;;;;;;;15.70;8.03;;;7.50;99.90;;;;;;4963783;28;20462;-79
2022/02/03 07:53:21;;;;;;;13.43;8.80;;;7.60;99.90;;;;;;4973301;28;20465;-79
2022/02/03 07:56:08;;;;;;;13.60;8.57;;;7.40;99.90;;;;;;4969546;28;20489;-78
2022/02/03 07:58:55;;;;;;;15.90;8.90;;;7.40;99.90;;;;;;4980518;28;20484;-79
2022/02/03 08:01:44;;;;;;;13.83;8.57;;;7.50;99.90;;;;;;4968574;28;20446;-79
2022/02/03 08:04:34;;;;;;;12.20;8.30;;;7.60;99.90;;;;;;4965040;28;21191;-79
2022/02/03 08:07:25;;;;;;;14.00;9.13;;;7.60;99.90;;;;;;4970070;28;21135;-78
2022/02/03 08:10:26;;;;;;;13.20;9.30;;;7.60;99.90;;;;;;4965840;28;20465;-79
2022/02/03 08:13:21;;;;;;;15.00;8.37;;;7.60;99.90;;;;;;4966564;28;21245;-79
2022/02/03 08:16:25;;;;;;;16.10;9.60;;;7.70;99.90;;;;;;4967996;28;20473;-79
2022/02/03 08:19:58;;;;;;;14.77;8.90;;;7.70;99.90;;;;;;4977077;28;20964;-79
2022/02/03 08:22:34;;;;;;;16.10;8.90;;;7.70;99.90;;;;;;4978369;28;20455;-79
2022/02/03 08:25:29;;;;;;;12.80;8.30;;;7.60;99.90;;;;;;4972704;28;20504;-79
2022/02/03 08:31:20;;;;;;;15.30;9.50;;;7.80;99.90;;;;;;4964852;28;21017;-79
2022/02/03 08:34:13;;;;;;;15.67;9.33;;;7.80;99.90;;;;;;4972542;28;20986;-77
2022/02/03 08:37:05;;;;;;;17.70;10.00;;;7.70;99.90;;;;;;4967244;28;20513;-77
2022/02/03 08:39:55;;;;;;;14.07;8.97;;;7.70;99.90;;;;;;4977823;28;20473;-77
2022/02/03 08:42:48;;;;;;;20.20;9.67;;;7.70;99.90;;;;;;4988766;28;20473;-78
2022/02/03 08:45:35;;;;;;;14.27;8.40;;;7.80;99.90;;;;;;4969513;28;20478;-77
2022/02/03 08:48:22;;;;;;;14.83;9.00;;;7.80;99.90;;;;;;4971280;28;20454;-77
2022/02/03 08:51:13;;;;;;;14.87;9.13;;;7.90;99.90;;;;;;4975316;28;20446;-77
2022/02/03 08:54:08;;;;;;;14.87;8.60;;;7.90;99.90;;;;;;4978704;28;20474;-77
2022/02/03 08:57:05;;;;;;;15.33;9.30;;;7.90;99.90;;;;;;4980570;28;20453;-77
2022/02/03 09:40:42;;;;;;;16.17;10.83;;;8.60;99.90;;;;;;4967448;28;20461;-77
2022/02/03 09:53:26;;;;;;;16.50;10.10;;;8.80;99.90;;;;;;4968579;28;20481;-78
2022/02/03 09:56:34;;;;;;;15.43;10.27;;;8.80;99.90;;;;;;4968334;28;20482;-78
2022/02/03 09:59:21;;;;;;;17.90;11.00;;;8.80;99.90;;;;;;4969693;28;20485;-79
2022/02/03 10:02:14;;;;;;;14.63;9.07;;;8.80;99.90;;;;;;4968329;28;20450;-78
2022/02/03 10:05:21;;;;;;;16.80;11.30;;;8.80;99.90;;;;;;4978691;28;20576;-78
2022/02/03 10:08:13;;;;;;;17.17;10.60;;;8.90;99.90;;;;;;4982174;28;20442;-78
2022/02/03 10:11:23;;;;;;;17.40;10.40;;;9.00;99.90;;;;;;4953794;28;20557;-78
2022/02/03 10:14:10;;;;;;;16.70;10.57;;;9.00;99.90;;;;;;4966921;28;20481;-79
2022/02/03 10:16:59;;;;;;;17.87;10.50;;;9.10;99.90;;;;;;4981775;28;20486;-78
2022/02/03 10:19:57;;;;;;;19.80;12.27;;;9.20;99.90;;;;;;4986441;28;20544;-78
2022/02/03 10:22:55;;;;;;;17.67;11.40;;;9.20;99.90;;;;;;4969821;28;20976;-78
2022/02/03 10:25:51;;;;;;;19.40;11.90;;;9.30;99.90;;;;;;4984761;28;20476;-78
2022/02/03 10:28:49;;;;;;;19.43;11.90;;;9.20;99.90;;;;;;4988386;28;20452;-78
2022/02/03 10:31:39;;;;;;;20.53;13.30;;;9.20;99.90;;;;;;4971395;28;20457;-78
2022/02/03 10:34:33;;;;;;;23.30;13.23;;;9.20;99.90;;;;;;4971694;28;20480;-78
2022/02/03 10:37:37;;;;;;;26.17;15.50;;;9.20;99.90;;;;;;4973714;28;20450;-78
2022/02/03 10:41:18;;;;;;;27.10;14.90;;;9.20;99.90;;;;;;4988229;28;20453;-79
2022/02/03 10:53:09;;;;;;;30.37;16.30;;;9.30;99.90;;;;;;5004854;28;20458;-79
2022/02/03 10:59:39;;;;;;;27.20;14.90;;;9.30;99.90;;;;;;4989242;28;20528;-79
2022/02/03 11:08:42;;;;;;;23.07;15.43;;;9.40;99.90;;;;;;4982231;28;20461;-79
2022/02/03 11:11:37;;;;;;;23.73;13.47;;;9.50;99.90;;;;;;4990532;28;20457;-79
2022/02/03 11:14:24;;;;;;;26.93;14.80;;;9.60;99.90;;;;;;4993103;28;20500;-78
2022/02/03 11:17:12;;;;;;;22.60;14.23;;;9.50;99.90;;;;;;4989995;28;20833;-78
2022/02/03 11:20:04;;;;;;;23.77;12.70;;;9.60;99.90;;;;;;4977691;28;20457;-78
2022/02/03 11:23:09;;;;;;;21.00;13.10;;;9.60;99.90;;;;;;4977698;28;20548;-79
2022/02/03 11:32:11;;;;;;;22.50;13.33;;;9.60;99.90;;;;;;4992323;28;20457;-79
2022/02/03 11:47:57;;;;;;;21.30;13.50;;;9.80;99.90;;;;;;4990718;28;21000;-79
2022/02/03 11:57:59;;;;;;;24.07;14.90;;;9.70;99.90;;;;;;4956569;28;20508;-78
2022/02/03 12:15:52;;;;;;;25.10;14.40;;;9.70;99.90;;;;;;4982670;28;20504;-78
2022/02/03 12:21:54;;;;;;;23.37;14.57;;;9.70;99.90;;;;;;4987196;28;20551;-78
2022/02/03 12:25:06;;;;;;;26.90;13.83;;;9.70;99.90;;;;;;4986424;28;20508;-77
2022/02/03 12:45:50;;;;;;;19.97;12.13;;;9.70;99.90;;;;;;5617439;23;20494;-80
2022/02/03 12:49:06;;;;;;;20.90;13.00;;;9.80;99.90;;;;;;5054258;28;20465;-78
2022/02/03 12:52:19;;;;;;;19.43;12.70;;;9.90;99.90;;;;;;5039610;28;20472;-78
2022/02/03 12:55:17;;;;;;;23.20;13.47;;;9.90;99.90;;;;;;5022492;28;20460;-78
2022/02/03 12:58:17;;;;;;;24.33;14.20;;;9.60;99.90;;;;;;5028385;28;20464;-78
2022/02/03 13:01:15;;;;;;;21.30;13.20;;;9.70;99.90;;;;;;5007189;28;20957;-78
2022/02/03 13:04:14;;;;;;;23.43;13.10;;;9.70;99.90;;;;;;5023505;28;20466;-80
2022/02/03 13:13:25;;;;;;;18.33;11.50;;;9.70;99.90;;;;;;5882564;23;20574;-79
2022/02/03 13:16:30;;;;;;;21.00;12.77;;;9.60;99.90;;;;;;5031188;28;20459;-79
2022/02/03 13:30:03;;;;;;;20.30;11.40;;;9.60;99.90;;;;;;5139934;23;20504;-78
2022/02/03 13:32:59;;;;;;;18.10;10.83;;;9.70;99.90;;;;;;5025105;28;20456;-77
2022/02/03 13:36:00;;;;;;;16.23;10.43;;;9.60;99.90;;;;;;4998331;28;20818;-77
2022/02/03 13:39:02;;;;;;;16.13;10.30;;;9.60;99.90;;;;;;4989016;28;20553;-77
2022/02/03 13:42:09;;;;;;;18.53;10.80;;;9.70;99.90;;;;;;5002876;28;20445;-77
2022/02/03 13:45:06;;;;;;;17.47;10.37;;;9.60;99.90;;;;;;4999594;28;20485;-77
2022/02/03 13:47:53;;;;;;;18.07;10.37;;;9.80;99.90;;;;;;4994187;28;20451;-78
2022/02/03 13:50:56;;;;;;;14.60;10.07;;;9.70;99.90;;;;;;5008138;28;20454;-78
2022/02/03 13:54:10;;;;;;;14.87;9.37;;;9.60;99.90;;;;;;4992703;28;20491;-78
2022/02/03 14:19:27;;;;;;;;;;;;;;;;;;;;;
2022/02/03 14:21:58;;;;;;;19.23;10.17;;;9.60;99.90;;;;;;4981987;28;20464;-77
2022/02/03 14:28:11;;;;;;;16.30;9.30;;;9.50;99.90;;;;;;4982376;28;20453;-77
2022/02/03 14:31:03;;;;;;;14.33;8.00;;;9.50;99.90;;;;;;4979013;28;20445;-77
2022/02/03 14:33:52;;;;;;;14.10;8.27;;;9.50;99.90;;;;;;4987127;28;20900;-76
2022/02/03 14:36:42;;;;;;;13.73;8.87;;;9.50;99.90;;;;;;4994322;28;20478;-77
2022/02/03 14:39:47;;;;;;;12.43;8.93;;;9.50;99.90;;;;;;4974629;28;20469;-77
2022/02/03 14:42:38;;;;;;;11.33;8.13;;;9.50;99.90;;;;;;4985520;28;20449;-77
2022/02/03 14:45:25;;;;;;;14.27;9.30;;;9.40;99.90;;;;;;4986154;28;20485;-77
2022/02/03 14:48:14;;;;;;;12.73;8.43;;;9.40;99.90;;;;;;4968984;28;20457;-76
2022/02/03 14:51:05;;;;;;;14.77;9.43;;;9.40;99.90;;;;;;4982656;28;20988;-77
2022/02/03 14:53:57;;;;;;;13.30;9.00;;;9.40;99.90;;;;;;4978421;28;20993;-77
2022/02/03 14:59:50;;;;;;;13.57;10.10;;;9.40;99.90;;;;;;4987821;28;20507;-77
2022/02/03 15:02:37;;;;;;;16.10;8.87;;;9.30;99.90;;;;;;4988426;28;20452;-77
2022/02/03 15:05:29;;;;;;;15.03;9.03;;;9.30;99.90;;;;;;4984796;28;20523;-76
2022/02/03 15:08:17;;;;;;;13.70;9.50;;;9.30;99.90;;;;;;4968442;28;20488;-76
2022/02/03 15:11:13;;;;;;;14.73;9.17;;;9.30;99.90;;;;;;4986307;28;20446;-77
2022/02/03 15:14:00;;;;;;;13.50;8.77;;;9.20;99.90;;;;;;4988930;28;20473;-77
2022/02/03 15:16:47;;;;;;;13.90;9.50;;;9.20;99.90;;;;;;4987646;28;20449;-77
2022/02/03 15:19:58;;;;;;;16.97;9.10;;;9.20;99.90;;;;;;4991605;28;20477;-78
2022/02/03 15:22:46;;;;;;;12.43;9.20;;;9.20;99.90;;;;;;4987940;28;20441;-78
2022/02/03 15:25:36;;;;;;;15.17;9.20;;;9.20;99.90;;;;;;4999297;28;20481;-78
2022/02/03 15:28:25;;;;;;;13.87;9.20;;;9.10;99.90;;;;;;4991649;28;20820;-78
2022/02/03 15:31:14;;;;;;;16.67;8.47;;;9.00;99.90;;;;;;5005933;28;20476;-78
2022/02/03 15:34:10;;;;;;;14.23;9.33;;;9.00;99.90;;;;;;4996383;28;20469;-77
2022/02/03 15:37:02;;;;;;;13.33;8.13;;;9.00;99.90;;;;;;4998653;28;20461;-79
2022/02/03 15:39:53;;;;;;;14.33;9.67;;;9.00;99.90;;;;;;5002175;28;20465;-78
2022/02/03 15:43:09;;;;;;;11.37;8.20;;;9.00;99.90;;;;;;4975160;28;20452;-79
2022/02/03 15:46:01;;;;;;;13.90;9.40;;;8.90;99.90;;;;;;4995333;28;20477;-78
2022/02/03 15:49:13;;;;;;;14.20;8.10;;;9.00;99.90;;;;;;4981807;28;20457;-78
2022/02/03 16:14:05;;;;;;;14.83;8.47;;;8.80;99.90;;;;;;5001298;28;20503;-78
2022/02/03 16:16:52;;;;;;;12.33;7.50;;;8.80;99.90;;;;;;5009995;28;20912;-78
2022/02/03 16:19:58;;;;;;;11.50;7.83;;;8.70;99.90;;;;;;4997274;28;20465;-78
2022/02/03 16:40:47;;;;;;;11.37;8.10;;;9.00;99.90;;;;;;5003280;28;20508;-78
2022/02/03 16:54:19;;;;;;;13.07;9.37;;;8.90;99.90;;;;;;4999794;28;20484;-78
2022/02/03 16:57:16;;;;;;;14.37;8.83;;;8.70;99.90;;;;;;5000315;28;20539;-78
2022/02/03 17:00:10;;;;;;;13.93;9.57;;;8.70;99.90;;;;;;5002637;28;20535;-78
2022/02/03 17:03:16;;;;;;;14.80;9.60;;;8.60;99.90;;;;;;5007616;28;20496;-77
2022/02/03 17:06:10;;;;;;;14.60;9.37;;;8.60;99.90;;;;;;5001264;28;20552;-78
2022/02/03 17:09:01;;;;;;;13.30;10.07;;;8.70;99.90;;;;;;5005869;28;20437;-78
2022/02/03 17:11:53;;;;;;;14.80;10.67;;;8.60;99.90;;;;;;4984168;28;21095;-78
2022/02/03 17:14:41;;;;;;;12.20;9.53;;;8.70;99.90;;;;;;4999237;28;20480;-78
2022/02/03 17:17:32;;;;;;;13.40;9.00;;;8.70;99.90;;;;;;5005576;28;20453;-78
2022/02/03 17:20:29;;;;;;;14.83;9.93;;;8.70;99.90;;;;;;5006683;28;20473;-78
2022/02/03 17:23:23;;;;;;;13.80;9.57;;;8.80;99.90;;;;;;5003177;28;20461;-80
2022/02/03 17:26:21;;;;;;;16.40;9.00;;;8.80;99.90;;;;;;4989423;28;20492;-78
2022/02/03 17:29:13;;;;;;;13.77;9.90;;;8.70;99.90;;;;;;4583335;26;20475;-79
2022/02/03 18:11:50;;;;;;;15.30;9.60;;;8.80;99.90;;;;;;4984457;28;20460;-74
2022/02/03 18:49:21;;;;;;;16.03;11.27;;;8.70;99.90;;;;;;5001952;28;20471;-73
2022/02/03 18:56:37;;;;;;;17.13;10.77;;;8.60;99.90;;;;;;5002209;28;20485;-74
2022/02/03 18:59:25;;;;;;;14.73;10.77;;;8.60;99.90;;;;;;4984302;28;20475;-74
2022/02/03 19:02:57;;;;;;;15.73;11.27;;;8.60;99.90;;;;;;5001638;28;20492;-75
2022/02/03 19:14:23;;;;;;;17.80;11.90;;;8.70;99.90;;;;;;4996776;28;20494;-74
2022/02/03 19:22:15;;;;;;;16.27;10.63;;;8.60;99.90;;;;;;4981321;28;20484;-75
2022/02/03 20:08:36;;;;;;;15.80;11.70;;;8.80;99.90;;;;;;5001805;28;20440;-75
2022/02/03 20:11:02;;;;;;;18.57;12.23;;;8.80;99.90;;;;;;4982712;28;20468;-74
2022/02/03 20:13:30;;;;;;;17.63;12.33;;;8.70;99.90;;;;;;5002596;28;20510;-74
2022/02/03 20:15:57;;;;;;;20.13;12.90;;;8.70;99.90;;;;;;4997201;28;20567;-74
2022/02/03 20:18:24;;;;;;;18.60;12.93;;;8.60;99.90;;;;;;4973951;28;20464;-70
2022/02/03 20:20:51;;;;;;;19.00;12.03;;;8.70;99.90;;;;;;4988841;28;20496;-75
2022/02/03 20:23:20;;;;;;;15.87;10.70;;;8.70;99.90;;;;;;4984264;28;20490;-74
2022/02/03 20:25:56;;;;;;;18.83;11.70;;;8.80;99.90;;;;;;4982447;28;20512;-74
2022/02/03 20:28:26;;;;;;;17.60;11.90;;;8.80;99.90;;;;;;5001969;28;20517;-74
2022/02/03 20:30:56;;;;;;;17.30;12.10;;;8.80;99.90;;;;;;5006870;28;20827;-75
2022/02/03 20:33:23;;;;;;;18.70;12.43;;;8.70;99.90;;;;;;5004329;28;20472;-74
2022/02/03 20:35:50;;;;;;;18.90;12.40;;;8.70;99.90;;;;;;4988502;28;20484;-74
2022/02/03 20:38:20;;;;;;;18.40;12.93;;;8.80;99.90;;;;;;4958627;28;20457;-74
2022/02/03 20:40:48;;;;;;;18.40;12.10;;;8.80;99.90;;;;;;5002719;28;20475;-72
2022/02/03 20:43:15;;;;;;;20.00;13.00;;;8.80;99.90;;;;;;5006304;28;20471;-72
2022/02/03 20:45:44;;;;;;;18.03;13.23;;;8.80;99.90;;;;;;4970420;28;20899;-74
2022/02/03 20:48:11;;;;;;;20.03;12.83;;;8.80;99.90;;;;;;5007976;28;20806;-74
2022/02/03 20:50:40;;;;;;;19.47;13.50;;;8.80;99.90;;;;;;5007920;28;20833;-74
2022/02/03 20:53:07;;;;;;;19.07;13.40;;;8.70;99.90;;;;;;4987212;28;20853;-74
2022/02/03 20:55:34;;;;;;;21.10;13.07;;;8.60;99.90;;;;;;4982277;28;21058;-73
2022/02/03 20:58:01;;;;;;;20.97;13.23;;;8.70;99.90;;;;;;4976077;28;20814;-73
2022/02/03 21:00:39;;;;;;;21.53;14.23;;;8.60;99.90;;;;;;5000622;28;21078;-74
2022/02/03 21:03:15;;;;;;;23.57;13.33;;;8.60;99.90;;;;;;4985239;28;20881;-74
2022/02/03 21:05:43;;;;;;;19.20;13.30;;;8.60;99.90;;;;;;4999903;28;20943;-73
2022/02/03 21:08:11;;;;;;;18.70;13.70;;;8.60;99.90;;;;;;5002468;28;20522;-74
2022/02/03 21:10:38;;;;;;;22.40;14.67;;;8.60;99.90;;;;;;4972001;28;21091;-73
2022/02/03 21:13:05;;;;;;;18.73;13.50;;;8.60;99.90;;;;;;5003391;28;21063;-73
2022/02/03 21:15:39;;;;;;;19.77;13.43;;;8.60;99.90;;;;;;5001397;28;21027;-74
2022/02/03 21:18:10;;;;;;;21.13;13.87;;;8.60;99.90;;;;;;4981257;28;21121;-74
2022/02/03 21:20:39;;;;;;;18.70;13.20;;;8.60;99.90;;;;;;4994967;28;20996;-74
2022/02/03 21:23:07;;;;;;;19.00;13.93;;;8.60;99.90;;;;;;4984710;28;20549;-74
2022/02/03 21:25:42;;;;;;;20.00;13.80;;;8.60;99.90;;;;;;5001732;28;20492;-75
2022/02/03 21:28:21;;;;;;;20.53;14.30;;;8.70;99.90;;;;;;4993687;28;20464;-74
2022/02/03 21:30:50;;;;;;;21.60;14.03;;;8.70;99.90;;;;;;4961619;28;20503;-74
2022/02/03 21:33:25;;;;;;;23.20;14.27;;;8.70;99.90;;;;;;4997241;28;20894;-74
2022/02/03 21:35:57;;;;;;;26.20;15.67;;;8.60;99.90;;;;;;4977377;28;22231;-75
2022/02/03 21:38:24;;;;;;;21.50;13.80;;;8.80;99.90;;;;;;4999218;28;20452;-75
2022/02/03 21:40:53;;;;;;;21.90;15.37;;;8.60;99.90;;;;;;4956476;28;63158;-75
2022/02/03 21:43:55;;;;;;;22.05;13.75;;;8.60;99.90;;;;;;5069256;27;1198041;-74
2022/02/03 21:46:24;;;;;;;19.17;13.57;;;8.60;99.90;;;;;;5033826;28;20235;-74
2022/02/03 21:48:52;;;;;;;20.37;13.77;;;8.60;99.90;;;;;;5034283;28;20473;-74
2022/02/03 21:51:22;;;;;;;22.50;14.50;;;8.60;99.90;;;;;;5044862;28;20483;-74
2022/02/03 21:53:51;;;;;;;23.63;14.80;;;8.60;99.90;;;;;;5031833;28;20490;-74
2022/02/03 21:56:20;;;;;;;22.10;15.00;;;8.60;99.90;;;;;;5045621;28;20624;-74
2022/02/03 21:58:48;;;;;;;25.20;14.57;;;8.60;99.90;;;;;;5044131;28;20478;-74
2022/02/03 22:01:21;;;;;;;23.67;15.10;;;8.60;99.90;;;;;;5020578;28;20480;-74
2022/02/03 22:03:49;;;;;;;21.90;15.40;;;8.60;99.90;;;;;;5020561;28;20474;-74
2022/02/03 22:06:17;;;;;;;20.90;14.73;;;8.60;99.90;;;;;;5028680;28;20486;-74
2022/02/03 22:08:45;;;;;;;27.63;15.70;;;8.60;99.90;;;;;;5042494;28;20502;-73
2022/02/03 22:11:16;;;;;;;20.00;13.33;;;8.60;99.90;;;;;;5046796;28;20538;-74
2022/02/03 22:13:44;;;;;;;22.67;15.10;;;8.60;99.90;;;;;;5047530;28;20487;-75
2022/02/03 22:16:15;;;;;;;24.00;14.73;;;8.60;99.90;;;;;;5062717;28;20485;-74
2022/02/03 22:18:45;;;;;;;19.87;13.70;;;8.50;99.90;;;;;;5065407;28;20469;-74
2022/02/03 22:21:22;;;;;;;22.97;14.10;;;8.50;99.90;;;;;;5056759;28;20488;-74
2022/02/03 22:23:58;;;;;;;20.93;13.37;;;8.60;99.90;;;;;;5060899;28;20528;-74
2022/02/03 22:46:09;;;;;;;19.90;13.47;;;8.50;99.90;;;;;;4995526;28;20516;-74
2022/02/03 22:48:37;;;;;;;19.27;13.10;;;8.50;99.90;;;;;;5029889;28;20458;-76
2022/02/03 22:51:08;;;;;;;24.33;14.60;;;8.60;99.90;;;;;;5058427;28;20458;-74
2022/02/03 22:53:40;;;;;;;21.50;13.87;;;8.60;99.90;;;;;;5055487;28;20498;-74
2022/02/03 22:56:10;;;;;;;22.70;13.23;;;8.50;99.90;;;;;;5046283;28;20492;-74
2022/02/03 23:01:23;;;;;;;20.60;13.40;;;8.60;99.90;;;;;;5044035;28;20469;-74
2022/02/03 23:03:52;;;;;;;21.20;13.23;;;8.60;99.90;;;;;;5028746;28;20561;-74
2022/02/03 23:06:21;;;;;;;19.90;13.53;;;8.50;99.90;;;;;;5009251;28;20493;-74
2022/02/03 23:08:58;;;;;;;18.73;12.73;;;8.50;99.90;;;;;;5023913;28;20554;-75
2022/02/03 23:12:01;;;;;;;20.53;13.00;;;8.50;99.90;;;;;;5027227;28;20466;-74
2022/02/03 23:14:50;;;;;;;19.13;12.73;;;8.50;99.90;;;;;;5011660;28;20498;-74
2022/02/03 23:17:36;;;;;;;18.73;12.30;;;8.60;99.90;;;;;;5029280;28;20465;-74
2022/02/03 23:20:10;;;;;;;22.90;14.27;;;8.60;99.90;;;;;;5039466;28;20459;-74
2022/02/03 23:22:41;;;;;;;23.90;14.90;;;8.60;99.90;;;;;;5044653;28;20469;-74
2022/02/03 23:25:13;;;;;;;19.90;13.70;;;8.50;99.90;;;;;;5042570;28;20487;-73
2022/02/03 23:28:09;;;;;;;20.53;13.60;;;8.50;99.90;;;;;;5036922;28;20472;-72
2022/02/03 23:30:38;;;;;;;19.77;12.93;;;8.50;99.90;;;;;;5021685;28;20443;-74
2022/02/03 23:33:07;;;;;;;20.80;13.37;;;8.60;99.90;;;;;;5027631;28;20507;-74
2022/02/03 23:35:37;;;;;;;17.70;12.33;;;8.60;99.90;;;;;;5044102;28;20521;-73
2022/02/03 23:38:18;;;;;;;20.70;12.67;;;8.60;99.90;;;;;;5043904;28;20536;-74
2022/02/03 23:52:26;;;;;;;20.33;12.17;;;8.70;99.90;;;;;;5027789;28;20451;-74
